Time;durP1;ratioP1;P1;durP2;ratioP2;P2;SDS_P1;SDS_P2;PMS_P1;PMS_P2;Temp;Humidity;BMP_temperature;BMP_pressure;BME280_temperature;BME280_humidity;BME280_pressure;Samples;Min_cycle;Max_cycle;Signal;HPM_P1;HPM_P2
2023/06/24 00:02:01;;;;;;;11.33;9.83;;;16.90;99.90;;;16.64;78.09;101805.34;5052586;28;20297;-76
2023/06/24 00:04:33;;;;;;;15.43;10.60;;;16.90;99.90;;;16.61;79.13;101818.38;5053101;28;20222;-76
2023/06/24 00:07:07;;;;;;;10.87;9.83;;;16.80;99.90;;;16.55;78.97;101810.91;5053511;28;20221;-76
2023/06/24 00:09:39;;;;;;;12.07;10.17;;;16.80;99.90;;;16.56;78.82;101818.03;5053382;28;20257;-76
2023/06/24 00:12:18;;;;;;;11.43;10.23;;;16.80;99.90;;;16.53;78.90;101824.63;5053105;28;20190;-76
2023/06/24 00:14:51;;;;;;;13.80;11.47;;;16.80;99.90;;;16.47;79.66;101824.47;5053343;28;20193;-76
2023/06/24 00:17:23;;;;;;;11.53;10.37;;;16.70;99.90;;;16.42;79.58;101824.13;5053356;28;20273;-76
2023/06/24 00:19:55;;;;;;;12.37;10.67;;;16.60;99.90;;;16.46;79.96;101829.03;5053236;28;20218;-76
2023/06/24 00:22:28;;;;;;;12.30;11.10;;;16.70;99.90;;;16.42;79.28;101824.97;5052744;28;20651;-76
2023/06/24 00:25:00;;;;;;;12.67;11.23;;;16.70;99.90;;;16.37;79.44;101816.53;5052860;28;20630;-76
2023/06/24 00:27:32;;;;;;;12.47;10.93;;;16.60;99.90;;;16.32;79.32;101824.31;5053109;28;20226;-76
2023/06/24 00:30:04;;;;;;;13.70;12.23;;;16.60;99.90;;;16.28;80.17;101822.97;5053228;28;20240;-76
2023/06/24 00:32:36;;;;;;;12.00;10.80;;;16.50;99.90;;;16.24;80.12;101817.06;5053055;28;20282;-76
2023/06/24 00:35:13;;;;;;;12.43;11.17;;;16.50;99.90;;;16.14;79.57;101829.91;5012745;28;1178338;-76
2023/06/24 00:37:46;;;;;;;11.37;10.20;;;16.40;99.90;;;16.15;79.89;101825.34;5053824;28;20240;-76
2023/06/24 00:40:18;;;;;;;12.87;11.57;;;16.40;99.90;;;16.13;79.92;101822.81;5053764;28;20186;-76
2023/06/24 00:42:50;;;;;;;12.07;10.97;;;16.40;99.90;;;16.10;79.62;101825.00;5053612;28;20264;-76
2023/06/24 00:45:24;;;;;;;13.30;11.30;;;16.30;99.90;;;16.07;79.11;101828.91;5053443;28;20663;-76
2023/06/24 00:47:56;;;;;;;12.60;11.40;;;16.30;99.90;;;16.05;79.49;101827.38;5053851;28;20206;-76
2023/06/24 00:50:28;;;;;;;12.50;10.87;;;16.30;99.90;;;16.00;79.63;101824.34;5053755;28;20248;-76
2023/06/24 00:53:01;;;;;;;13.13;11.83;;;16.20;99.90;;;15.96;79.21;101828.41;5053530;28;20312;-76
2023/06/24 00:55:33;;;;;;;12.20;11.07;;;16.20;99.90;;;15.94;79.17;101833.13;5053613;28;20193;-76
2023/06/24 00:58:05;;;;;;;12.10;10.90;;;16.20;99.90;;;15.91;78.83;101836.16;5053208;28;20640;-76
2023/06/24 01:00:38;;;;;;;13.47;10.83;;;16.20;99.90;;;15.92;79.62;101844.09;5053457;28;20289;-76
2023/06/24 01:03:13;;;;;;;13.57;12.03;;;16.20;99.90;;;15.85;79.27;101847.66;5053291;28;20253;-76
2023/06/24 01:05:47;;;;;;;12.37;10.93;;;16.10;99.90;;;15.86;79.40;101835.81;5053078;28;20190;-76
2023/06/24 01:08:22;;;;;;;12.50;11.23;;;16.10;99.90;;;15.80;78.59;101841.88;5053366;28;20285;-76
2023/06/24 01:10:55;;;;;;;11.30;10.07;;;16.00;99.90;;;15.80;79.08;101841.88;5053293;28;20186;-76
2023/06/24 01:13:27;;;;;;;12.37;11.07;;;16.10;99.90;;;15.75;78.97;101837.00;5053063;28;20226;-76
2023/06/24 01:16:09;;;;;;;13.37;10.70;;;16.00;99.90;;;15.69;78.91;101837.66;5052952;28;20286;-76
2023/06/24 01:18:49;;;;;;;11.40;10.30;;;15.90;99.90;;;15.73;78.97;101839.88;5053226;28;20194;-76
2023/06/24 01:21:53;;;;;;;13.33;10.73;;;16.00;99.90;;;15.65;79.22;101834.44;5053191;28;20277;-76
2023/06/24 01:24:51;;;;;;;11.23;10.13;;;15.90;99.90;;;15.61;79.44;101835.81;5052749;28;20228;-76
2023/06/24 01:27:54;;;;;;;13.43;11.77;;;15.80;99.90;;;15.60;79.63;101839.50;5052782;28;20202;-76
2023/06/24 01:30:53;;;;;;;12.57;11.27;;;15.90;99.90;;;15.55;79.68;101831.06;5053097;28;20202;-76
2023/06/24 01:33:33;;;;;;;13.13;11.83;;;15.80;99.90;;;15.56;79.34;101837.31;5052844;28;20241;-76
2023/06/24 01:36:08;;;;;;;11.57;10.37;;;15.80;99.90;;;15.52;79.26;101847.59;5052729;28;20698;-76
2023/06/24 01:38:48;;;;;;;12.80;11.00;;;15.80;99.90;;;15.55;80.15;101851.78;5053048;28;20284;-76
2023/06/24 01:41:32;;;;;;;12.10;10.17;;;15.80;99.90;;;15.54;79.43;101855.53;5052964;28;20194;-76
2023/06/24 01:44:10;;;;;;;11.00;9.90;;;15.80;99.90;;;15.49;79.74;101861.41;5052876;28;20351;-76
2023/06/24 01:46:46;;;;;;;10.97;9.83;;;15.80;99.90;;;15.41;79.51;101855.94;5052988;28;20186;-76
2023/06/24 01:49:22;;;;;;;11.90;9.50;;;15.70;99.90;;;15.36;79.80;101855.63;5052698;28;20186;-76
2023/06/24 01:51:57;;;;;;;11.07;9.07;;;15.60;99.90;;;15.34;80.21;101854.09;5052586;28;20281;-76
2023/06/24 01:54:32;;;;;;;12.17;9.33;;;15.60;99.90;;;15.31;79.57;101855.25;5052807;28;20257;-76
2023/06/24 01:57:06;;;;;;;10.73;9.10;;;15.60;99.90;;;15.24;78.99;101848.81;5052631;28;20276;-76
2023/06/24 01:59:41;;;;;;;10.67;9.60;;;15.50;99.90;;;15.21;79.71;101847.31;5053003;28;20191;-76
2023/06/24 02:02:14;;;;;;;11.03;9.83;;;15.40;99.90;;;15.19;79.76;101861.97;5052479;28;20701;-76
2023/06/24 02:04:49;;;;;;;9.73;8.80;;;15.40;99.90;;;15.19;79.00;101854.72;5052780;28;20237;-76
2023/06/24 02:07:23;;;;;;;10.00;9.00;;;15.50;99.90;;;15.17;79.38;101858.59;5052758;28;20194;-76
2023/06/24 02:09:57;;;;;;;11.43;9.80;;;15.50;99.90;;;15.15;79.41;101857.91;5052469;28;20190;-76
2023/06/24 02:12:32;;;;;;;10.93;9.80;;;15.50;99.90;;;15.11;79.53;101843.03;5052645;28;20186;-76
2023/06/24 02:15:06;;;;;;;10.47;9.47;;;15.40;99.90;;;15.08;79.66;101851.47;5052408;28;20189;-76
2023/06/24 02:17:40;;;;;;;10.83;9.80;;;15.40;99.90;;;15.07;79.47;101855.16;5052757;28;20202;-76
2023/06/24 02:20:16;;;;;;;9.83;8.83;;;15.40;99.90;;;15.06;79.35;101856.19;5052555;28;20195;-76
2023/06/24 02:22:49;;;;;;;9.70;8.67;;;15.40;99.90;;;15.06;79.84;101851.66;5052182;28;20321;-76
2023/06/24 02:25:22;;;;;;;10.10;9.03;;;15.40;99.90;;;15.05;79.48;101849.94;5054806;28;20292;-76
2023/06/24 02:27:56;;;;;;;10.27;9.27;;;15.40;99.90;;;14.98;79.62;101853.44;5056252;28;20213;-76
2023/06/24 02:30:29;;;;;;;10.77;9.77;;;15.30;99.90;;;14.91;80.13;101853.25;5056297;28;20222;-76
2023/06/24 02:33:01;;;;;;;11.60;10.33;;;15.20;99.90;;;14.89;80.46;101849.03;5055887;28;20219;-76
2023/06/24 02:35:34;;;;;;;11.27;10.17;;;15.10;99.90;;;14.91;80.54;101852.41;5056092;28;20197;-76
2023/06/24 02:38:06;;;;;;;11.50;9.63;;;15.20;99.90;;;14.84;80.03;101852.19;5056130;28;20240;-76
2023/06/24 02:40:39;;;;;;;10.60;9.20;;;15.10;99.90;;;14.79;79.91;101838.38;5056008;28;20222;-76
2023/06/24 02:43:11;;;;;;;13.30;10.33;;;15.10;99.90;;;14.76;80.63;101844.06;5055514;28;20741;-76
2023/06/24 02:45:44;;;;;;;13.53;9.83;;;15.00;99.90;;;14.69;80.01;101846.56;5055889;28;20274;-76
2023/06/24 02:48:17;;;;;;;11.33;10.00;;;15.00;99.90;;;14.70;80.18;101848.25;5055620;28;20205;-76
2023/06/24 02:50:52;;;;;;;10.63;9.37;;;15.00;99.90;;;14.66;80.30;101846.88;5055935;28;20194;-76
2023/06/24 02:53:24;;;;;;;10.90;9.80;;;15.00;99.90;;;14.66;79.61;101840.63;5056057;28;20221;-76
2023/06/24 02:55:58;;;;;;;10.27;9.27;;;15.00;99.90;;;14.67;79.84;101843.19;5055454;28;20610;-76
2023/06/24 02:58:31;;;;;;;10.00;9.00;;;15.00;99.90;;;14.62;79.53;101848.19;5055744;28;20273;-76
2023/06/24 03:01:08;;;;;;;11.87;9.20;;;14.90;99.90;;;14.61;79.65;101851.91;5055645;28;20281;-76
2023/06/24 03:03:41;;;;;;;10.43;9.43;;;14.90;99.90;;;14.57;79.87;101855.94;5055420;28;20230;-76
2023/06/24 03:06:17;;;;;;;10.20;9.20;;;14.90;99.90;;;14.54;79.86;101858.09;5056247;28;20515;-76
2023/06/24 03:08:50;;;;;;;10.43;9.30;;;14.80;99.90;;;14.55;79.88;101863.34;5055530;28;20194;-76
2023/06/24 03:11:22;;;;;;;11.03;9.83;;;14.90;99.90;;;14.56;82.00;101859.63;5055451;28;20209;-76
2023/06/24 03:13:54;;;;;;;10.70;9.60;;;14.90;99.90;;;14.57;82.04;101855.94;5055020;28;20589;-76
2023/06/24 03:16:25;;;;;;;12.07;9.53;;;14.90;99.90;;;14.54;81.93;101867.03;5055385;28;20277;-76
2023/06/24 03:18:57;;;;;;;11.17;9.97;;;15.00;99.90;;;14.53;82.78;101868.03;5054996;28;20289;-76
2023/06/24 03:21:30;;;;;;;10.67;9.50;;;14.90;99.90;;;14.44;83.20;101870.84;5055281;28;20191;-76
2023/06/24 03:24:02;;;;;;;14.27;9.53;;;14.70;99.90;;;14.29;83.26;101873.22;5054778;28;20787;-76
2023/06/24 03:26:39;;;;;;;9.83;8.87;;;14.70;99.90;;;14.34;83.69;101865.56;5055179;28;20232;-76
2023/06/24 03:29:12;;;;;;;10.97;8.67;;;14.70;99.90;;;14.27;84.19;101875.22;5055094;28;20248;-76
2023/06/24 03:31:45;;;;;;;12.20;9.47;;;14.60;99.90;;;14.27;83.86;101869.84;5055091;28;20222;-76
2023/06/24 03:34:17;;;;;;;10.13;7.30;;;14.60;99.90;;;14.29;83.73;101867.81;5054696;28;20317;-76
2023/06/24 03:36:51;;;;;;;10.17;8.33;;;14.70;99.90;;;14.23;83.78;101868.47;5053810;28;20191;-76
2023/06/24 03:39:22;;;;;;;12.23;8.13;;;14.60;99.90;;;14.17;84.24;101875.34;5054664;28;20285;-76
2023/06/24 03:41:54;;;;;;;11.37;8.13;;;14.50;99.90;;;14.14;84.57;101880.19;5054955;28;20196;-76
2023/06/24 03:44:26;;;;;;;11.03;8.20;;;14.50;99.90;;;14.13;84.47;101878.47;5054408;28;20682;-76
2023/06/24 03:46:58;;;;;;;9.87;8.00;;;14.50;99.90;;;14.11;84.20;101878.63;5054803;28;20238;-76
2023/06/24 03:49:30;;;;;;;10.43;8.70;;;14.50;99.90;;;14.15;85.05;101876.47;5054476;28;20190;-76
2023/06/24 03:52:03;;;;;;;13.53;9.23;;;14.50;99.90;;;14.11;85.38;101875.06;5054663;28;20285;-76
2023/06/24 03:54:35;;;;;;;9.70;8.47;;;14.50;99.90;;;14.12;85.11;101877.63;5054628;28;20223;-76
2023/06/24 03:57:08;;;;;;;15.63;9.87;;;14.50;99.90;;;14.04;85.65;101879.41;5054650;28;20269;-76
2023/06/24 03:59:40;;;;;;;9.97;8.97;;;14.50;99.90;;;14.14;85.63;101874.78;5054571;28;20233;-76
2023/06/24 04:02:13;;;;;;;13.37;9.33;;;14.50;99.90;;;14.15;84.65;101871.06;5054251;28;20624;-76
2023/06/24 04:04:45;;;;;;;11.20;9.00;;;14.50;99.90;;;14.18;85.04;101870.75;5054008;28;20716;-76
2023/06/24 04:07:26;;;;;;;10.17;9.10;;;14.60;99.90;;;14.23;84.95;101872.00;5054519;28;20218;-76
2023/06/24 04:09:59;;;;;;;11.23;8.53;;;14.60;99.90;;;14.24;84.76;101872.84;5054348;28;20194;-76
2023/06/24 04:12:31;;;;;;;13.93;9.17;;;14.60;99.90;;;14.23;85.32;101879.22;5054327;28;20257;-76
2023/06/24 04:15:07;;;;;;;10.03;8.20;;;14.60;99.90;;;14.24;84.94;101880.94;5054478;28;20217;-76
2023/06/24 04:17:39;;;;;;;11.63;8.93;;;14.60;99.90;;;14.22;84.90;101880.22;5054355;28;20282;-76
2023/06/24 04:20:13;;;;;;;13.97;8.80;;;14.60;99.90;;;14.19;85.83;101877.84;5054225;28;20190;-76
2023/06/24 04:22:47;;;;;;;10.20;8.77;;;14.60;99.90;;;14.17;85.81;101886.09;5054216;28;20552;-76
2023/06/24 04:25:19;;;;;;;12.07;9.13;;;14.60;99.90;;;14.21;86.16;101883.94;5053744;28;20309;-76
2023/06/24 04:27:52;;;;;;;11.77;8.93;;;14.60;99.90;;;14.24;85.58;101889.00;5053822;28;20680;-76
2023/06/24 04:30:25;;;;;;;12.67;8.60;;;14.70;99.90;;;14.25;85.58;101881.78;5054400;28;20191;-77
2023/06/24 04:32:57;;;;;;;10.67;9.27;;;14.70;99.90;;;14.28;85.54;101886.84;5054233;28;20578;-77
2023/06/24 04:35:30;;;;;;;11.17;8.40;;;14.70;99.90;;;14.28;85.38;101889.56;5054930;28;20550;-77
2023/06/24 04:38:03;;;;;;;11.90;9.60;;;14.70;99.90;;;14.29;86.21;101889.38;5054851;28;20289;-77
2023/06/24 04:40:35;;;;;;;10.83;9.30;;;14.70;99.90;;;14.31;86.74;101892.78;5054467;28;20593;-77
2023/06/24 04:43:06;;;;;;;12.30;10.33;;;14.70;99.90;;;14.30;86.36;101896.47;5054223;28;20222;-77
2023/06/24 04:45:38;;;;;;;14.53;9.90;;;14.80;99.90;;;14.29;86.42;101897.47;5055084;28;20269;-77
2023/06/24 04:48:10;;;;;;;13.60;10.30;;;14.80;99.90;;;14.27;86.76;101894.09;5055058;28;20621;-77
2023/06/24 04:50:53;;;;;;;14.50;9.77;;;14.80;99.90;;;14.34;87.02;101894.34;5055972;28;20205;-77
2023/06/24 04:53:26;;;;;;;11.27;9.77;;;14.80;99.90;;;14.35;87.27;101899.56;5056947;28;20585;-76
2023/06/24 04:55:58;;;;;;;12.73;9.30;;;14.80;99.90;;;14.38;87.58;101893.88;5055675;28;20183;-76
2023/06/24 04:58:30;;;;;;;13.13;9.97;;;14.90;99.90;;;14.42;87.79;101886.28;5055451;28;20297;-76
2023/06/24 05:01:02;;;;;;;12.90;9.53;;;14.90;99.90;;;14.44;87.84;101895.94;5055147;28;20229;-76
2023/06/24 05:03:34;;;;;;;13.87;10.47;;;14.90;99.90;;;14.44;88.06;101898.63;5055257;28;20256;-76
2023/06/24 05:06:12;;;;;;;12.57;9.90;;;15.00;99.90;;;14.48;88.24;101894.63;5056185;28;20636;-76
2023/06/24 05:08:46;;;;;;;12.90;10.80;;;15.10;99.90;;;14.52;88.05;101901.38;5056796;28;20281;-76
2023/06/24 05:11:17;;;;;;;16.63;10.90;;;15.00;99.90;;;14.55;87.92;101900.22;5055218;28;20667;-76
2023/06/24 05:13:49;;;;;;;17.17;10.90;;;15.10;99.90;;;14.58;88.60;101902.59;5055132;28;20316;-76
2023/06/24 05:16:23;;;;;;;17.50;11.90;;;15.10;99.90;;;14.61;88.60;101904.97;5055255;28;20290;-77
2023/06/24 05:18:55;;;;;;;16.10;11.60;;;15.10;99.90;;;14.63;88.67;101903.81;5055596;28;20553;-77
2023/06/24 05:21:27;;;;;;;16.33;11.77;;;15.20;99.90;;;14.67;88.42;101910.56;5055567;28;20281;-76
2023/06/24 05:24:00;;;;;;;14.57;11.13;;;15.20;99.90;;;14.69;88.94;101900.47;5055475;28;20253;-76
2023/06/24 05:26:32;;;;;;;15.03;11.60;;;15.20;99.90;;;14.71;88.64;101911.97;5054891;28;20566;-76
2023/06/24 05:29:04;;;;;;;15.53;12.03;;;15.30;99.90;;;14.76;88.80;101914.16;5055466;28;20191;-77
2023/06/24 05:31:36;;;;;;;17.37;12.50;;;15.30;99.90;;;14.80;88.81;101911.97;5055213;28;20194;-77
2023/06/24 05:34:08;;;;;;;19.80;12.87;;;15.30;99.90;;;14.86;89.49;101927.56;5055503;28;20329;-77
2023/06/24 05:36:40;;;;;;;16.30;12.30;;;15.40;99.90;;;14.89;89.49;101916.44;5055634;28;20702;-77
2023/06/24 05:39:13;;;;;;;17.30;12.70;;;15.40;99.90;;;14.91;88.96;101917.13;5054843;28;20190;-76
2023/06/24 05:41:45;;;;;;;14.27;12.17;;;15.50;99.90;;;14.95;88.96;101915.78;5055443;28;20186;-77
2023/06/24 05:44:17;;;;;;;15.30;12.50;;;15.50;99.90;;;14.98;90.15;101924.41;5055505;28;20339;-76
2023/06/24 05:46:49;;;;;;;14.53;12.57;;;15.50;99.90;;;15.02;90.06;101914.16;5054767;28;20277;-76
2023/06/24 05:49:21;;;;;;;15.13;12.00;;;15.60;99.90;;;15.05;90.29;101924.63;5055829;28;20285;-76
2023/06/24 05:51:53;;;;;;;18.13;12.47;;;15.60;99.90;;;15.11;90.78;101919.41;5056114;28;20242;-76
2023/06/24 05:54:27;;;;;;;15.13;12.63;;;15.70;99.90;;;15.16;89.95;101932.44;5055323;28;20285;-76
2023/06/24 05:56:59;;;;;;;16.60;13.13;;;15.70;99.90;;;15.22;89.16;101929.09;5055689;28;20277;-76
2023/06/24 05:59:31;;;;;;;14.10;12.60;;;15.80;99.90;;;15.22;90.50;101926.38;5057167;28;20274;-76
2023/06/24 06:02:03;;;;;;;14.63;13.13;;;15.80;99.90;;;15.29;89.67;101916.63;5059955;28;20277;-76
2023/06/24 06:04:35;;;;;;;17.43;13.13;;;15.90;99.90;;;15.31;91.11;101924.59;5059568;28;20612;-76
2023/06/24 06:07:07;;;;;;;15.87;12.83;;;15.90;99.90;;;15.34;90.17;101919.72;5060668;28;20620;-76
2023/06/24 06:09:40;;;;;;;16.57;13.93;;;15.90;99.90;;;15.41;88.98;101920.72;5058946;28;20187;-76
2023/06/24 06:12:13;;;;;;;17.80;13.87;;;16.00;99.90;;;15.42;89.76;101914.31;5060467;28;20198;-76
2023/06/24 06:14:45;;;;;;;17.10;13.70;;;16.10;99.90;;;15.52;89.56;101906.97;5059309;28;20226;-76
2023/06/24 06:17:17;;;;;;;19.03;14.43;;;16.10;99.90;;;15.54;87.94;101913.06;5060430;28;20214;-76
2023/06/24 06:19:49;;;;;;;16.37;13.90;;;16.10;99.90;;;15.59;88.89;101908.00;5060229;28;20653;-76
2023/06/24 06:22:23;;;;;;;18.47;14.03;;;16.20;99.90;;;15.64;88.89;101916.47;5059456;28;20198;-76
2023/06/24 06:24:57;;;;;;;16.57;13.67;;;16.20;99.90;;;15.69;88.28;101910.53;5058345;28;20249;-76
2023/06/24 06:27:29;;;;;;;17.00;13.97;;;16.30;99.90;;;15.70;88.53;101910.41;5058279;28;20218;-76
2023/06/24 06:30:01;;;;;;;14.87;12.90;;;16.30;99.90;;;15.84;88.46;101900.81;5059222;28;20204;-76
2023/06/24 06:32:32;;;;;;;16.23;11.90;;;16.40;99.90;;;15.85;85.90;101899.81;5058719;28;20218;-76
2023/06/24 06:35:04;;;;;;;14.80;12.80;;;16.50;99.90;;;15.83;87.61;101900.97;5058344;28;20231;-76
2023/06/24 06:37:36;;;;;;;13.33;11.27;;;16.40;99.90;;;15.85;88.70;101905.19;5057853;28;20222;-76
2023/06/24 06:40:10;;;;;;;18.23;12.43;;;16.40;99.90;;;15.93;86.86;101917.84;5058221;28;20272;-76
2023/06/24 06:42:42;;;;;;;16.20;13.17;;;16.50;99.90;;;15.97;89.32;101916.50;5058178;28;20224;-76
2023/06/24 06:45:15;;;;;;;14.30;12.60;;;16.60;99.90;;;15.97;89.96;101922.75;5059149;28;20246;-76
2023/06/24 06:47:46;;;;;;;17.33;12.53;;;16.60;99.90;;;16.11;86.93;101926.66;5073720;28;20209;-76
2023/06/24 06:50:18;;;;;;;13.63;11.03;;;16.70;99.90;;;16.14;85.17;101920.91;5074610;28;20220;-76
2023/06/24 06:52:51;;;;;;;13.27;10.93;;;16.70;99.90;;;16.24;84.11;101910.78;5063796;28;20226;-76
2023/06/24 06:55:24;;;;;;;13.90;12.03;;;16.80;99.90;;;16.28;84.50;101904.03;5062637;28;20210;-76
2023/06/24 06:57:56;;;;;;;14.17;10.87;;;16.80;99.90;;;16.37;85.49;101899.50;5063776;28;20580;-76
2023/06/24 07:00:28;;;;;;;15.63;11.17;;;17.00;99.90;;;16.37;84.52;101900.31;5062765;28;20213;-77
2023/06/24 07:03:00;;;;;;;13.43;11.63;;;17.00;99.90;;;16.39;85.13;101902.84;5062729;28;20226;-76
2023/06/24 07:05:31;;;;;;;13.47;10.57;;;17.00;99.90;;;16.53;83.82;101908.44;5062985;28;20221;-76
2023/06/24 07:08:06;;;;;;;14.47;11.40;;;17.20;99.90;;;16.68;83.36;101905.88;5062579;28;20193;-76
2023/06/24 07:10:39;;;;;;;16.00;11.20;;;17.20;99.90;;;16.73;82.36;101915.19;5061675;28;20194;-75
2023/06/24 07:13:11;;;;;;;10.23;8.63;;;17.30;99.90;;;16.77;80.55;101912.13;5061440;28;20322;-76
2023/06/24 07:15:42;;;;;;;15.07;10.97;;;17.40;99.90;;;16.75;82.45;101911.47;5059973;28;20233;-76
2023/06/24 07:18:14;;;;;;;16.23;11.13;;;17.40;99.90;;;16.76;84.21;101910.44;5061436;28;20253;-76
2023/06/24 07:20:46;;;;;;;13.20;9.87;;;17.30;99.90;;;16.89;80.56;101914.28;5060983;28;20281;-76
2023/06/24 07:23:18;;;;;;;11.80;10.00;;;17.50;99.90;;;16.98;80.47;101910.56;5061042;28;20287;-76
2023/06/24 07:25:51;;;;;;;12.93;10.37;;;17.60;99.90;;;17.07;80.10;101905.97;5061938;28;20214;-76
2023/06/24 07:28:23;;;;;;;11.93;10.63;;;17.70;99.90;;;17.20;82.31;101912.50;5061992;28;20218;-75
2023/06/24 07:31:01;;;;;;;12.77;11.10;;;17.80;99.90;;;17.13;84.47;101907.97;5063424;28;20248;-75
2023/06/24 07:33:35;;;;;;;16.00;10.73;;;18.50;99.90;;;17.15;83.17;101905.94;5061525;28;20237;-76
2023/06/24 07:36:09;;;;;;;14.93;10.27;;;17.80;99.90;;;17.26;81.28;101927.19;5060104;28;20273;-76
2023/06/24 07:38:44;;;;;;;11.60;10.40;;;17.90;99.90;;;17.33;79.50;101922.75;5064607;28;20194;-76
2023/06/24 07:41:17;;;;;;;13.70;10.43;;;18.00;99.90;;;17.37;79.48;101929.50;5063939;28;20343;-75
2023/06/24 07:43:51;;;;;;;11.87;10.07;;;18.00;99.90;;;17.58;80.00;101929.78;5064275;28;20222;-75
2023/06/24 07:46:26;;;;;;;10.37;8.83;;;18.20;99.90;;;17.64;77.37;101937.19;5064462;28;20245;-75
2023/06/24 07:48:58;;;;;;;10.17;9.03;;;18.30;99.90;;;17.62;80.62;101931.13;5063047;28;20190;-75
2023/06/24 07:51:30;;;;;;;9.83;8.83;;;18.20;99.90;;;17.67;76.25;101926.00;5064299;28;20556;-76
2023/06/24 07:54:02;;;;;;;9.67;8.07;;;18.30;99.90;;;17.66;80.31;101932.47;5063372;28;20735;-76
2023/06/24 07:56:35;;;;;;;11.93;8.50;;;18.30;99.90;;;17.80;77.12;101930.03;5063914;28;20245;-75
2023/06/24 07:59:07;;;;;;;12.27;7.60;;;18.40;99.90;;;17.92;75.09;101929.41;5062918;28;20191;-75
2023/06/24 08:01:39;;;;;;;9.80;8.50;;;18.50;99.90;;;17.91;76.23;101929.63;5063255;28;20222;-75
2023/06/24 08:04:11;;;;;;;9.30;8.33;;;18.50;99.90;;;17.97;76.63;101929.75;5062040;28;20240;-74
2023/06/24 08:06:43;;;;;;;10.13;8.23;;;18.60;99.90;;;18.00;78.12;101928.53;5062679;28;20784;-74
2023/06/24 08:09:16;;;;;;;10.90;7.73;;;18.60;99.90;;;18.11;77.57;101922.69;5062908;28;20258;-75
2023/06/24 08:11:49;;;;;;;9.93;7.90;;;18.70;99.90;;;18.42;76.11;101931.59;5063665;28;20226;-75
2023/06/24 08:14:21;;;;;;;12.50;8.50;;;18.90;99.90;;;18.43;73.54;101938.69;5062691;28;20245;-74
2023/06/24 08:16:53;;;;;;;8.30;7.50;;;19.10;99.90;;;18.41;76.36;101934.47;5062200;28;20194;-75
2023/06/24 08:19:25;;;;;;;12.37;7.90;;;19.00;99.90;;;18.39;78.20;101929.22;5062963;28;20197;-75
2023/06/24 08:21:59;;;;;;;7.97;6.07;;;19.00;99.90;;;18.50;70.60;101933.38;5061561;28;20191;-75
2023/06/24 08:24:32;;;;;;;9.20;7.43;;;19.10;99.90;;;18.52;75.07;101924.06;5063084;28;20250;-74
2023/06/24 08:27:06;;;;;;;8.83;6.67;;;19.10;99.90;;;18.57;70.33;101918.94;5061303;28;20217;-75
2023/06/24 08:29:38;;;;;;;7.40;6.70;;;19.20;99.90;;;18.76;69.85;101922.16;5061187;28;20221;-75
2023/06/24 08:32:11;;;;;;;9.17;6.00;;;19.30;99.90;;;18.89;68.87;101927.78;5060568;28;20230;-75
2023/06/24 08:34:42;;;;;;;9.53;7.23;;;19.40;99.30;;;18.97;69.14;101924.97;5059711;28;20234;-75
2023/06/24 08:37:14;;;;;;;10.17;6.90;;;19.60;99.10;;;18.88;69.71;101917.94;5062640;28;20201;-75
2023/06/24 08:39:47;;;;;;;7.13;6.23;;;19.50;99.60;;;18.99;67.41;101923.75;5061784;28;20191;-75
2023/06/24 08:42:20;;;;;;;6.60;6.00;;;19.60;98.70;;;19.17;65.71;101926.09;5062227;28;20672;-76
2023/06/24 08:44:54;;;;;;;10.73;7.97;;;19.70;98.10;;;19.14;70.46;101921.06;5061954;28;20194;-75
2023/06/24 08:47:31;;;;;;;8.13;6.10;;;19.70;99.90;;;19.19;65.54;101916.72;5061881;28;20210;-75
2023/06/24 08:50:12;;;;;;;8.67;6.83;;;19.80;98.00;;;19.22;67.07;101929.09;5061699;28;20273;-75
2023/06/24 08:52:51;;;;;;;9.03;6.47;;;19.80;98.30;;;19.37;65.89;101921.78;5061474;28;20196;-76
2023/06/24 08:55:33;;;;;;;7.70;6.90;;;19.90;98.10;;;19.46;69.22;101925.25;5060895;28;20226;-76
2023/06/24 08:58:07;;;;;;;8.07;7.27;;;20.10;99.30;;;19.51;67.90;101923.66;5055850;28;20190;-74
2023/06/24 09:00:42;;;;;;;14.80;13.07;;;20.10;98.80;;;19.49;69.10;101917.56;5055726;28;20216;-75
2023/06/24 09:03:15;;;;;;;11.77;9.53;;;20.10;99.20;;;19.63;67.62;101921.28;5055285;28;20233;-75
2023/06/24 09:05:49;;;;;;;8.93;6.77;;;20.20;97.90;;;19.77;67.00;101906.81;5055187;28;20209;-74
2023/06/24 09:08:22;;;;;;;6.83;6.23;;;20.30;98.30;;;20.02;65.14;101918.16;5056513;28;20194;-74
2023/06/24 09:10:58;;;;;;;8.10;6.37;;;20.60;97.10;;;20.06;63.91;101911.31;5054911;28;20335;-74
2023/06/24 09:13:39;;;;;;;9.30;7.40;;;20.60;96.80;;;20.09;65.63;101921.81;5054824;28;20229;-74
2023/06/24 09:16:17;;;;;;;8.47;7.10;;;20.70;97.40;;;20.06;67.86;101914.03;5054356;28;20197;-74
2023/06/24 09:18:54;;;;;;;6.70;5.90;;;20.60;98.40;;;20.35;63.41;101910.34;5054858;28;20651;-74
2023/06/24 09:21:30;;;;;;;6.60;6.00;;;20.80;96.40;;;20.30;65.18;101900.06;5054010;28;20646;-74
2023/06/24 09:24:03;;;;;;;7.67;6.97;;;20.90;97.20;;;20.31;65.03;101909.91;5053859;28;20242;-74
2023/06/24 09:26:35;;;;;;;7.97;6.03;;;20.90;97.00;;;20.35;64.21;101900.31;5054413;28;20214;-74
2023/06/24 09:29:09;;;;;;;7.53;5.60;;;20.90;96.60;;;20.56;64.67;101897.56;5054223;28;20637;-74
2023/06/24 09:31:47;;;;;;;6.87;5.50;;;21.10;96.70;;;20.64;62.24;101893.84;5054491;28;20272;-75
2023/06/24 09:34:20;;;;;;;6.53;5.87;;;21.30;95.20;;;20.70;63.56;101890.34;5056509;28;20711;-75
2023/06/24 09:36:58;;;;;;;17.23;15.53;;;21.30;96.20;;;20.72;65.30;101885.53;5058402;28;20186;-74
2023/06/24 09:39:37;;;;;;;8.40;5.73;;;21.30;96.90;;;20.70;64.17;101883.03;5058355;28;20197;-74
2023/06/24 09:42:13;;;;;;;6.40;5.40;;;21.30;96.30;;;20.97;64.18;101891.34;5058377;28;20211;-74
2023/06/24 09:44:53;;;;;;;6.93;6.23;;;21.60;96.20;;;20.97;63.29;101894.06;5058219;28;20337;-74
2023/06/24 09:47:27;;;;;;;6.80;4.90;;;21.60;95.80;;;21.10;58.90;101886.00;5057883;28;20225;-74
2023/06/24 09:49:59;;;;;;;5.87;5.23;;;21.60;94.00;;;21.13;57.66;101881.00;5058173;28;20195;-74
2023/06/24 09:52:37;;;;;;;5.87;5.27;;;21.60;92.80;;;21.36;59.67;101877.13;5058252;28;20264;-73
2023/06/24 09:55:13;;;;;;;6.17;4.50;;;21.90;94.40;;;21.67;57.72;101881.00;5057320;28;20734;-73
2023/06/24 09:57:48;;;;;;;5.93;5.33;;;22.10;92.70;;;21.60;58.49;101874.69;5057926;28;20245;-74
2023/06/24 10:00:24;;;;;;;6.00;5.33;;;22.10;93.60;;;21.77;56.55;101874.31;5057260;28;20648;-75
2023/06/24 10:02:58;;;;;;;5.90;5.40;;;22.30;92.20;;;21.95;57.82;101872.69;5057431;28;20234;-74
2023/06/24 10:05:32;;;;;;;5.93;5.30;;;22.40;92.40;;;21.95;57.38;101875.41;5057864;28;20205;-74
2023/06/24 10:08:05;;;;;;;5.30;4.90;;;22.40;92.80;;;21.85;60.15;101877.66;5057409;28;20211;-74
2023/06/24 10:10:38;;;;;;;6.80;5.50;;;22.40;93.70;;;21.92;60.76;101872.28;5057438;28;20225;-73
2023/06/24 10:13:11;;;;;;;5.67;5.00;;;22.50;94.40;;;21.96;58.12;101874.38;5057097;28;20226;-73
2023/06/24 10:15:45;;;;;;;5.90;5.17;;;22.40;93.40;;;21.94;58.96;101875.63;5057257;28;20194;-73
2023/06/24 10:18:48;;;;;;;9.60;8.07;;;22.80;93.20;;;22.10;58.38;101876.06;5057157;28;20260;-74
2023/06/24 10:21:20;;;;;;;11.37;7.80;;;22.60;93.50;;;22.17;58.67;101870.63;4995340;28;20738;-74
2023/06/24 10:23:58;;;;;;;13.33;11.37;;;22.70;93.30;;;22.23;57.63;101869.78;5047422;28;20316;-74
2023/06/24 10:26:36;;;;;;;8.47;7.63;;;22.70;92.50;;;22.34;55.83;101865.59;5058030;28;20195;-73
2023/06/24 10:29:20;;;;;;;7.20;6.50;;;22.80;91.80;;;22.44;59.01;101872.31;5057459;28;20190;-74
2023/06/24 10:32:01;;;;;;;5.40;4.90;;;23.00;93.00;;;22.57;57.47;101871.44;5057377;28;20649;-73
2023/06/24 10:34:35;;;;;;;6.07;4.90;;;23.00;92.60;;;22.66;55.11;101862.88;5056909;28;20240;-73